Terminal Aerodrome Forecast
Issued by NWS Austin/San Antonio, TX

Home | Current Version | Previous Version | Text Only | Print | Product List | Glossary On
Versions: 1 2 3 4 5 6 7 8 9 10 11 12 13 14 15
000
FTUS44 KEWX 301009 AAA
TAFAUS
TAF AMD
KAUS 301009Z 3010/3112 18005KT P6SM SCT009 OVC015
      TEMPO 3010/3013 4SM BR OVC007
     FM302100 19010KT P6SM SCT020 BKN250
     FM310500 18010KT P6SM BKN010
     FM310700 18005KT P6SM OVC007=

USA.gov is the U.S. government's official web portal to all federal, state and local government web resources and services.